Shady Lady — WDD8618 — position and weather

sailwx.info

Track history (hours):
 
Tides and Currents Weather Stations Pressure Air Temp Water Temp Dewpoint Dewpoint Depression Visibility Wind Speed Wind Dir Waves Ship Positions

Shady Lady

Owner: SHADY LADY OF WEST SAYVILLE INC, MONTAUK, NY. More information available from US FCC via Universal Licensing System and Coast Guard Vessel Documentation Center.

Last reported at 2018-Jun-01 21:32 UTC. Time now 2018-Jun-22 17:08 UTC.
Position N 34°19' W 075°48'.
Warning: this ship's position is 20 days out of date.

Length 18 m.

Type: Pleasure craft. MMSI: 367300490.

Date/timePositionNaut miles runAvg speedWind from/ knotsBaromVisibWave heightAir tempDewpointWater temp
2018-Jun-01 21:32N 34°19' W 075°48'0 7.6
2018-Jun-01 21:30N 34°19' W 075°48'  
2018-May-24 07:52N 34°31' W 076°47'2 6.5
2018-May-24 07:30N 34°33' W 076°46'3 6.4
2018-May-24 07:00N 34°35' W 076°43'3 6.5
2018-May-24 06:30N 34°38' W 076°41'3 6.2
2018-May-24 06:00N 34°41' W 076°40'3 5.4
2018-May-24 05:30N 34°43' W 076°42'3 5.5
2018-May-24 05:00N 34°46' W 076°41'4 7.7
2018-May-24 04:30N 34°50' W 076°41'4 8.3
2018-May-24 04:00N 34°54' W 076°41'  
Track history (hours):
 
Tides and Currents Weather Stations Pressure Air Temp Water Temp Dewpoint Dewpoint Depression Visibility Wind Speed Wind Dir Waves Ship Positions

Shady Lady

Owner: SHADY LADY OF WEST SAYVILLE INC, MONTAUK, NY. More information available from US FCC via Universal Licensing System and Coast Guard Vessel Documentation Center.

Last reported at 2018-Jun-01 21:32 UTC. Time now 2018-Jun-22 17:08 UTC.
Position N 34°19' W 075°48'.
Warning: this ship's position is 20 days out of date.

Length 18 m.

Type: Pleasure craft. MMSI: 367300490.

Date/timePositionNaut miles runAvg speedWind from/ knotsBaromVisibWave heightAir tempDewpointWater temp
2018-Jun-01 21:32N 34°19' W 075°48'0 7.6
2018-Jun-01 21:30N 34°19' W 075°48'  
2018-May-24 07:52N 34°31' W 076°47'2 6.5
2018-May-24 07:30N 34°33' W 076°46'3 6.4
2018-May-24 07:00N 34°35' W 076°43'3 6.5
2018-May-24 06:30N 34°38' W 076°41'3 6.2
2018-May-24 06:00N 34°41' W 076°40'3 5.4
2018-May-24 05:30N 34°43' W 076°42'3 5.5
2018-May-24 05:00N 34°46' W 076°41'4 7.7
2018-May-24 04:30N 34°50' W 076°41'4 8.3
2018-May-24 04:00N 34°54' W 076°41'  

Dump ship's entire track history